PDT,Max TemperatureF,Mean TemperatureF,Min TemperatureF,Max Dew PointF,MeanDew PointF,Min DewpointF,Max Humidity, Mean Humidity, Min Humidity, Max Sea Level PressureIn, Mean Sea Level PressureIn, Min Sea Level PressureIn, Max VisibilityMiles, Mean VisibilityMiles, Min VisibilityMiles, Max Wind SpeedMPH, Mean Wind SpeedMPH, Max Gust SpeedMPH,PrecipitationIn, CloudCover, Events, WindDirDegrees
2012-9-1,77,66,57,36,33,28,44,27,16,30.01,30.00,29.96,15,15,15,12,8,,0.00,0,,313
2012-9-2,81,64,51,39,35,32,50,30,17,30.07,30.05,30.04,15,15,15,12,6,,0.00,3,,264
2012-9-3,82,68,54,44,42,38,55,36,23,30.06,30.03,29.99,15,15,15,10,5,,0.00,0,,274
2012-9-4,87,73,60,46,42,39,56,36,19,30.14,30.08,30.01,15,15,15,12,9,,0.00,0,,333
2012-9-5,90,72,54,47,43,38,60,37,19,30.04,29.94,29.78,15,15,15,18,7,25,0.00,1,,190
2012-9-6,83,69,56,48,44,40,64,41,24,30.09,30.03,29.94,15,15,12,12,7,,0.00,0,,359
2012-9-7,88,72,55,46,42,39,63,38,18,30.20,30.15,30.08,15,15,15,12,6,,0.00,0,,302
2012-9-8,87,70,55,43,42,39,59,34,18,30.07,30.04,29.96,15,15,15,7,4,,0.00,2,,343
2012-9-9,87,74,61,50,45,32,56,38,15,29.89,29.81,29.76,15,15,15,18,9,26,0.00,2,,278
2012-9-10,73,63,54,47,39,31,64,43,22,30.10,29.97,29.89,15,15,15,28,13,34,0.00,1,,286
2012-9-11,74,58,46,40,32,22,68,42,17,30.27,30.20,30.12,15,15,10,12,8,,0.00,0,,283
2012-9-12,76,58,41,36,30,25,67,36,16,30.39,30.33,30.23,15,14,10,12,7,,0.00,0,,338
2012-9-13,81,70,60,36,32,26,30,22,18,30.30,30.19,30.10,15,13,4,9,6,,0.00,3,,305
2012-9-14,86,66,47,39,33,25,50,32,17,30.10,30.06,29.94,15,11,5,10,5,,0.00,4,,315
2012-9-15,88,70,57,41,38,34,50,30,14,30.05,30.04,30.02,15,10,5,8,5,,0.00,1,,9
2012-9-16,89,73,61,42,33,29,49,26,13,30.15,30.11,30.05,15,15,15,10,9,,0.00,0,,320
2012-9-17,87,69,52,40,34,31,50,29,14,30.14,30.07,30.00,15,14,10,9,6,,0.00,2,,313
2012-9-18,90,68,48,44,40,36,78,39,16,30.06,30.00,29.94,15,13,10,8,6,,0.00,0,,116
2012-9-19,90,71,53,44,40,36,64,35,17,30.08,30.02,29.97,15,11,5,10,6,,0.00,2,,93
2012-9-20,88,70,54,44,41,38,60,37,19,30.08,30.03,29.97,15,7,2,8,6,,0.00,6,,17
2012-9-21,84,68,53,48,42,36,60,40,23,30.02,29.97,29.89,10,5,2,12,6,,0.00,5,,284
2012-9-22,72,59,51,52,50,48,86,64,46,29.99,29.98,29.96,8,7,6,5,5,,0.02,6,Rain-Thunderstorm,334
2012-9-23,75,62,54,51,48,47,83,67,43,30.09,30.06,30.02,10,8,6,9,6,,0.01,6,Rain,264
2012-9-24,83,64,47,50,47,45,93,61,30,30.06,29.99,29.90,10,10,8,12,5,,0.00,1,,29
2012-9-25,79,66,53,49,46,43,74,47,27,29.99,29.94,29.91,15,13,10,18,9,26,0.00,2,,307
2012-9-26,80,64,48,45,42,38,68,48,25,30.06,30.02,29.97,15,13,10,9,6,,0.00,1,,301
2012-9-27,82,64,48,47,43,40,86,49,26,30.07,30.01,29.91,15,14,12,8,6,,0.00,1,,292
2012-9-28,79,64,49,48,44,39,75,49,29,29.95,29.92,29.86,15,14,12,8,5,,0.00,4,,150
2012-9-29,82,68,55,52,50,43,63,44,31,30.04,30.02,30.00,15,15,15,9,7,,0.00,5,,256
2012-9-30,80,62,46,38,35,32,68,38,19,30.28,30.26,30.22,15,14,10,8,5,,0.00,2,,327